sensor_id;sensor_type;location;lat;lon;timestamp;pressure;altitude;pressure_sealevel;temperature;humidity
60087;BME280;45960;53.630;55.972;2022-08-11T00:00:31;100324.13;;;19.70;68.38
60087;BME280;45960;53.630;55.972;2022-08-11T00:01:33;100325.13;;;19.69;68.52
60087;BME280;45960;53.630;55.972;2022-08-11T00:02:35;100319.00;;;19.67;68.54
60087;BME280;45960;53.630;55.972;2022-08-11T00:03:41;100320.00;;;19.66;68.32
60087;BME280;45960;53.630;55.972;2022-08-11T00:04:42;100322.00;;;19.64;68.43
60087;BME280;45960;53.630;55.972;2022-08-11T00:05:44;100316.59;;;19.64;68.24
60087;BME280;45960;53.630;55.972;2022-08-11T00:06:45;100321.16;;;19.63;68.30
60087;BME280;45960;53.630;55.972;2022-08-11T00:07:48;100322.00;;;19.64;68.19
60087;BME280;45960;53.630;55.972;2022-08-11T00:08:49;100320.28;;;19.63;68.13
60087;BME280;45960;53.630;55.972;2022-08-11T00:09:51;100323.00;;;19.63;68.26
60087;BME280;45960;53.630;55.972;2022-08-11T00:10:53;100318.59;;;19.62;68.18
60087;BME280;45960;53.630;55.972;2022-08-11T00:11:56;100326.03;;;19.60;68.15
60087;BME280;45960;53.630;55.972;2022-08-11T00:12:59;100328.06;;;19.58;67.93
60087;BME280;45960;53.630;55.972;2022-08-11T00:14:00;100326.53;;;19.55;68.26
60087;BME280;45960;53.630;55.972;2022-08-11T00:15:02;100327.50;;;19.54;68.21
60087;BME280;45960;53.630;55.972;2022-08-11T00:16:10;100319.53;;;19.53;68.15
60087;BME280;45960;53.630;55.972;2022-08-11T00:17:12;100323.25;;;19.52;68.04
60087;BME280;45960;53.630;55.972;2022-08-11T00:18:14;100320.72;;;19.50;67.92
60087;BME280;45960;53.630;55.972;2022-08-11T00:19:19;100327.28;;;19.48;68.24
60087;BME280;45960;53.630;55.972;2022-08-11T00:20:20;100325.59;;;19.47;68.06
60087;BME280;45960;53.630;55.972;2022-08-11T00:21:23;100327.59;;;19.44;68.24
60087;BME280;45960;53.630;55.972;2022-08-11T00:22:25;100326.75;;;19.44;68.14
60087;BME280;45960;53.630;55.972;2022-08-11T00:23:27;100326.91;;;19.42;68.27
60087;BME280;45960;53.630;55.972;2022-08-11T00:24:35;100323.34;;;19.42;68.31
60087;BME280;45960;53.630;55.972;2022-08-11T00:25:37;100328.78;;;19.42;68.07
60087;BME280;45960;53.630;55.972;2022-08-11T00:26:39;100328.91;;;19.40;68.37
60087;BME280;45960;53.630;55.972;2022-08-11T00:27:40;100320.78;;;19.40;68.32
60087;BME280;45960;53.630;55.972;2022-08-11T00:28:41;100340.75;;;19.39;68.14
60087;BME280;45960;53.630;55.972;2022-08-11T00:30:01;100333.66;;;19.38;68.06
60087;BME280;45960;53.630;55.972;2022-08-11T00:31:03;100334.50;;;19.39;68.11
60087;BME280;45960;53.630;55.972;2022-08-11T00:32:04;100328.38;;;19.37;68.28
60087;BME280;45960;53.630;55.972;2022-08-11T00:33:06;100333.09;;;19.35;68.26
60087;BME280;45960;53.630;55.972;2022-08-11T00:34:09;100335.13;;;19.33;68.21
60087;BME280;45960;53.630;55.972;2022-08-11T00:35:11;100327.16;;;19.31;68.11
60087;BME280;45960;53.630;55.972;2022-08-11T00:36:14;100328.16;;;19.30;68.12
60087;BME280;45960;53.630;55.972;2022-08-11T00:37:17;100332.88;;;19.28;68.26
60087;BME280;45960;53.630;55.972;2022-08-11T00:38:21;100333.88;;;19.27;68.12
60087;BME280;45960;53.630;55.972;2022-08-11T00:39:23;100338.59;;;19.25;68.14
60087;BME280;45960;53.630;55.972;2022-08-11T00:40:41;100333.19;;;19.25;68.06
60087;BME280;45960;53.630;55.972;2022-08-11T00:42:54;100336.91;;;19.24;68.13
60087;BME280;45960;53.630;55.972;2022-08-11T00:48:38;100333.81;;;19.19;67.99
60087;BME280;45960;53.630;55.972;2022-08-11T01:01:07;100343.16;;;19.07;68.57
60087;BME280;45960;53.630;55.972;2022-08-11T01:02:16;100340.44;;;19.07;68.43
60087;BME280;45960;53.630;55.972;2022-08-11T01:04:44;100330.94;;;19.03;68.59
60087;BME280;45960;53.630;55.972;2022-08-11T01:18:52;100345.22;;;18.95;68.53
60087;BME280;45960;53.630;55.972;2022-08-11T01:32:35;100344.22;;;18.96;68.50
60087;BME280;45960;53.630;55.972;2022-08-11T01:39:26;100357.31;;;19.00;68.53
60087;BME280;45960;53.630;55.972;2022-08-11T01:44:43;100348.16;;;19.01;68.60
60087;BME280;45960;53.630;55.972;2022-08-11T01:45:56;100353.59;;;19.01;68.55
60087;BME280;45960;53.630;55.972;2022-08-11T01:50:35;100356.69;;;19.07;68.46
60087;BME280;45960;53.630;55.972;2022-08-11T01:51:48;100353.00;;;19.08;68.45
60087;BME280;45960;53.630;55.972;2022-08-11T01:56:00;100360.63;;;19.12;68.58
60087;BME280;45960;53.630;55.972;2022-08-11T01:59:33;100369.47;;;19.14;68.48
60087;BME280;45960;53.630;55.972;2022-08-11T02:01:01;100363.91;;;19.16;68.57
60087;BME280;45960;53.630;55.972;2022-08-11T02:02:04;100363.75;;;19.17;68.58
60087;BME280;45960;53.630;55.972;2022-08-11T02:07:16;100365.28;;;19.20;68.45
60087;BME280;45960;53.630;55.972;2022-08-11T02:09:13;100351.44;;;19.23;68.41
60087;BME280;45960;53.630;55.972;2022-08-11T02:10:24;100369.41;;;19.24;68.23
60087;BME280;45960;53.630;55.972;2022-08-11T02:11:45;100360.28;;;19.25;68.08
60087;BME280;45960;53.630;55.972;2022-08-11T02:12:50;100364.69;;;19.26;68.25
60087;BME280;45960;53.630;55.972;2022-08-11T02:13:56;100361.66;;;19.29;68.17
60087;BME280;45960;53.630;55.972;2022-08-11T02:17:35;100359.34;;;19.34;68.12
60087;BME280;45960;53.630;55.972;2022-08-11T02:18:38;100362.75;;;19.36;68.34
60087;BME280;45960;53.630;55.972;2022-08-11T02:21:28;100367.84;;;19.39;67.98
60087;BME280;45960;53.630;55.972;2022-08-11T02:22:50;100364.13;;;19.40;68.01
60087;BME280;45960;53.630;55.972;2022-08-11T02:24:16;100365.00;;;19.41;68.03
60087;BME280;45960;53.630;55.972;2022-08-11T02:26:23;100370.97;;;19.44;67.97
60087;BME280;45960;53.630;55.972;2022-08-11T02:27:26;100370.78;;;19.46;68.17
60087;BME280;45960;53.630;55.972;2022-08-11T02:28:45;100374.19;;;19.48;67.96
60087;BME280;45960;53.630;55.972;2022-08-11T02:31:01;100375.44;;;19.54;67.85
60087;BME280;45960;53.630;55.972;2022-08-11T02:32:30;100375.13;;;19.57;67.77
60087;BME280;45960;53.630;55.972;2022-08-11T02:33:52;100369.38;;;19.60;67.79
60087;BME280;45960;53.630;55.972;2022-08-11T02:36:07;100369.06;;;19.63;67.52
60087;BME280;45960;53.630;55.972;2022-08-11T02:39:19;100371.88;;;19.71;67.08
60087;BME280;45960;53.630;55.972;2022-08-11T02:42:04;100376.66;;;19.77;66.85
60087;BME280;45960;53.630;55.972;2022-08-11T02:44:33;100382.34;;;19.84;66.79
60087;BME280;45960;53.630;55.972;2022-08-11T02:45:39;100382.88;;;19.87;66.46
60087;BME280;45960;53.630;55.972;2022-08-11T02:52:13;100383.31;;;20.01;66.26
60087;BME280;45960;53.630;55.972;2022-08-11T02:56:20;100386.41;;;20.06;66.16
60087;BME280;45960;53.630;55.972;2022-08-11T02:57:43;100386.09;;;20.09;66.27
60087;BME280;45960;53.630;55.972;2022-08-11T02:58:54;100384.06;;;20.11;66.15
60087;BME280;45960;53.630;55.972;2022-08-11T03:00:17;100396.28;;;20.15;66.15
60087;BME280;45960;53.630;55.972;2022-08-11T03:01:24;100387.13;;;20.16;65.90
60087;BME280;45960;53.630;55.972;2022-08-11T03:03:47;100388.22;;;20.23;65.74
60087;BME280;45960;53.630;55.972;2022-08-11T03:08:53;100398.59;;;20.36;65.97
60087;BME280;45960;53.630;55.972;2022-08-11T03:10:04;100402.88;;;20.39;65.85
60087;BME280;45960;53.630;55.972;2022-08-11T03:11:10;100398.00;;;20.42;65.84
60087;BME280;45960;53.630;55.972;2022-08-11T03:17:35;100403.00;;;20.55;65.58
60087;BME280;45960;53.630;55.972;2022-08-11T03:18:41;100411.84;;;20.57;65.78
60087;BME280;45960;53.630;55.972;2022-08-11T03:19:52;100399.81;;;20.60;65.60
60087;BME280;45960;53.630;55.972;2022-08-11T03:21:06;100401.50;;;20.61;65.70
60087;BME280;45960;53.630;55.972;2022-08-11T03:22:16;100404.75;;;20.64;65.31
60087;BME280;45960;53.630;55.972;2022-08-11T03:23:28;100412.41;;;20.69;65.38
60087;BME280;45960;53.630;55.972;2022-08-11T03:24:35;100406.81;;;20.70;65.65
60087;BME280;45960;53.630;55.972;2022-08-11T03:29:33;100405.69;;;20.81;65.43
60087;BME280;45960;53.630;55.972;2022-08-11T03:32:43;100407.56;;;20.89;64.66
60087;BME280;45960;53.630;55.972;2022-08-11T03:34:06;100415.38;;;20.92;64.51
60087;BME280;45960;53.630;55.972;2022-08-11T03:35:08;100413.34;;;20.94;64.58
60087;BME280;45960;53.630;55.972;2022-08-11T03:43:46;100422.78;;;21.16;63.76
60087;BME280;45960;53.630;55.972;2022-08-11T03:46:14;100423.81;;;21.23;63.65
60087;BME280;45960;53.630;55.972;2022-08-11T03:51:51;100431.88;;;21.41;63.60
60087;BME280;45960;53.630;55.972;2022-08-11T03:53:01;100428.97;;;21.42;63.50
60087;BME280;45960;53.630;55.972;2022-08-11T04:06:31;100432.09;;;21.80;63.00
60087;BME280;45960;53.630;55.972;2022-08-11T04:07:56;100428.00;;;21.84;62.67
60087;BME280;45960;53.630;55.972;2022-08-11T04:10:30;100426.16;;;21.93;62.60
60087;BME280;45960;53.630;55.972;2022-08-11T04:11:45;100429.19;;;21.98;62.67
60087;BME280;45960;53.630;55.972;2022-08-11T04:20:47;100445.88;;;22.28;61.91
60087;BME280;45960;53.630;55.972;2022-08-11T04:24:26;100438.19;;;22.40;61.82
60087;BME280;45960;53.630;55.972;2022-08-11T04:25:48;100446.84;;;22.43;61.75
60087;BME280;45960;53.630;55.972;2022-08-11T04:28:09;100443.13;;;22.52;61.33
60087;BME280;45960;53.630;55.972;2022-08-11T04:31:59;100437.94;;;22.66;61.02
60087;BME280;45960;53.630;55.972;2022-08-11T04:34:32;100443.22;;;22.75;61.08
60087;BME280;45960;53.630;55.972;2022-08-11T04:38:07;100448.13;;;22.88;61.00
60087;BME280;45960;53.630;55.972;2022-08-11T04:39:26;100445.69;;;22.93;60.99
60087;BME280;45960;53.630;55.972;2022-08-11T04:40:39;100443.31;;;22.98;60.71
60087;BME280;45960;53.630;55.972;2022-08-11T04:41:57;100441.97;;;23.03;60.42
60087;BME280;45960;53.630;55.972;2022-08-11T04:46:13;100432.00;;;23.18;60.48
60087;BME280;45960;53.630;55.972;2022-08-11T04:49:18;100428.88;;;23.29;59.75
60087;BME280;45960;53.630;55.972;2022-08-11T04:52:22;100432.03;;;23.41;59.32
60087;BME280;45960;53.630;55.972;2022-08-11T04:53:53;100430.47;;;23.46;59.39
60087;BME280;45960;53.630;55.972;2022-08-11T04:56:35;100438.22;;;23.58;59.39
60087;BME280;45960;53.630;55.972;2022-08-11T04:58:20;100433.06;;;23.63;59.63
60087;BME280;45960;53.630;55.972;2022-08-11T04:59:56;100436.13;;;23.68;59.52
60087;BME280;45960;53.630;55.972;2022-08-11T05:09:12;100439.63;;;24.00;58.55
60087;BME280;45960;53.630;55.972;2022-08-11T05:10:24;100437.03;;;24.06;58.46
60087;BME280;45960;53.630;55.972;2022-08-11T05:12:51;100435.44;;;24.12;58.15
60087;BME280;45960;53.630;55.972;2022-08-11T05:14:13;100439.31;;;24.18;58.00
60087;BME280;45960;53.630;55.972;2022-08-11T05:15:43;100434.81;;;24.25;58.17
60087;BME280;45960;53.630;55.972;2022-08-11T05:17:12;100437.84;;;24.30;58.10
60087;BME280;45960;53.630;55.972;2022-08-11T05:18:33;100440.66;;;24.37;58.10
60087;BME280;45960;53.630;55.972;2022-08-11T05:19:52;100433.81;;;24.41;58.12
60087;BME280;45960;53.630;55.972;2022-08-11T05:21:12;100440.44;;;24.46;57.69
60087;BME280;45960;53.630;55.972;2022-08-11T05:22:32;100443.25;;;24.53;57.85
60087;BME280;45960;53.630;55.972;2022-08-11T05:23:56;100435.34;;;24.58;57.61
60087;BME280;45960;53.630;55.972;2022-08-11T05:25:17;100443.84;;;24.63;57.69
60087;BME280;45960;53.630;55.972;2022-08-11T05:26:41;100442.41;;;24.67;57.30
60087;BME280;45960;53.630;55.972;2022-08-11T05:28:12;100441.69;;;24.73;56.96
60087;BME280;45960;53.630;55.972;2022-08-11T05:31:06;100442.91;;;24.86;56.81
60087;BME280;45960;53.630;55.972;2022-08-11T05:32:38;100440.44;;;24.91;56.51
60087;BME280;45960;53.630;55.972;2022-08-11T05:33:58;100439.69;;;24.97;56.64
60087;BME280;45960;53.630;55.972;2022-08-11T05:35:27;100442.69;;;25.02;56.58
60087;BME280;45960;53.630;55.972;2022-08-11T05:36:43;100438.53;;;25.06;56.38
60087;BME280;45960;53.630;55.972;2022-08-11T05:37:46;100436.06;;;25.11;56.39
60087;BME280;45960;53.630;55.972;2022-08-11T05:39:10;100433.66;;;25.16;55.79
60087;BME280;45960;53.630;55.972;2022-08-11T05:40:31;100436.66;;;25.21;56.08
60087;BME280;45960;53.630;55.972;2022-08-11T05:41:55;100435.03;;;25.27;55.55
60087;BME280;45960;53.630;55.972;2022-08-11T05:43:15;100438.91;;;25.33;55.72
60087;BME280;45960;53.630;55.972;2022-08-11T05:44:35;100442.75;;;25.38;55.72
60087;BME280;45960;53.630;55.972;2022-08-11T05:46:01;100431.03;;;25.44;55.59
60087;BME280;45960;53.630;55.972;2022-08-11T05:47:21;100429.41;;;25.50;55.98
60087;BME280;45960;53.630;55.972;2022-08-11T05:48:42;100423.16;;;25.56;55.83
60087;BME280;45960;53.630;55.972;2022-08-11T05:50:03;100432.47;;;25.62;55.34
60087;BME280;45960;53.630;55.972;2022-08-11T05:51:36;100434.63;;;25.66;54.88
60087;BME280;45960;53.630;55.972;2022-08-11T05:52:57;100441.00;;;25.74;54.42
60087;BME280;45960;53.630;55.972;2022-08-11T05:54:17;100433.06;;;25.79;54.92
60087;BME280;45960;53.630;55.972;2022-08-11T05:55:41;100432.31;;;25.85;55.33
60087;BME280;45960;53.630;55.972;2022-08-11T05:57:01;100428.59;;;25.93;55.41
60087;BME280;45960;53.630;55.972;2022-08-11T05:58:04;100425.28;;;25.97;55.05
60087;BME280;45960;53.630;55.972;2022-08-11T05:59:05;100419.41;;;26.00;54.55
60087;BME280;45960;53.630;55.972;2022-08-11T06:00:12;100416.94;;;26.05;54.54
60087;BME280;45960;53.630;55.972;2022-08-11T06:01:20;100426.44;;;26.09;54.51
60087;BME280;45960;53.630;55.972;2022-08-11T06:02:22;100425.00;;;26.14;54.10
60087;BME280;45960;53.630;55.972;2022-08-11T06:03:24;100425.44;;;26.17;53.42
60087;BME280;45960;53.630;55.972;2022-08-11T06:04:27;100424.19;;;26.20;53.13
60087;BME280;45960;53.630;55.972;2022-08-11T06:06:32;100427.63;;;26.28;53.23
60087;BME280;45960;53.630;55.972;2022-08-11T06:07:34;100428.91;;;26.32;53.41
60087;BME280;45960;53.630;55.972;2022-08-11T06:08:35;100426.44;;;26.38;53.67
60087;BME280;45960;53.630;55.972;2022-08-11T06:10:45;100417.22;;;26.45;54.17
60087;BME280;45960;53.630;55.972;2022-08-11T06:11:46;100428.47;;;26.50;54.08
60087;BME280;45960;53.630;55.972;2022-08-11T06:12:50;100427.66;;;26.56;54.11
60087;BME280;45960;53.630;55.972;2022-08-11T06:13:52;100420.69;;;26.61;53.76
60087;BME280;45960;53.630;55.972;2022-08-11T06:14:54;100422.00;;;26.65;53.35
60087;BME280;45960;53.630;55.972;2022-08-11T06:15:55;100429.63;;;26.69;53.01
60087;BME280;45960;53.630;55.972;2022-08-11T06:16:58;100426.28;;;26.74;53.05
60087;BME280;45960;53.630;55.972;2022-08-11T06:17:59;100423.78;;;26.79;52.64
60087;BME280;45960;53.630;55.972;2022-08-11T06:19:03;100430.56;;;26.83;52.53
60087;BME280;45960;53.630;55.972;2022-08-11T06:20:05;100430.78;;;26.88;52.50
60087;BME280;45960;53.630;55.972;2022-08-11T06:21:09;100433.75;;;26.93;52.32
60087;BME280;45960;53.630;55.972;2022-08-11T06:22:11;100436.94;;;26.97;52.02
60087;BME280;45960;53.630;55.972;2022-08-11T06:23:12;100440.75;;;27.02;51.74
60087;BME280;45960;53.630;55.972;2022-08-11T06:24:17;100424.75;;;27.06;51.82
60087;BME280;45960;53.630;55.972;2022-08-11T06:25:19;100432.34;;;27.11;51.59
60087;BME280;45960;53.630;55.972;2022-08-11T06:26:22;100426.09;;;27.17;51.92
60087;BME280;45960;53.630;55.972;2022-08-11T06:27:23;100431.78;;;27.22;51.69
60087;BME280;45960;53.630;55.972;2022-08-11T06:28:29;100423.16;;;27.25;50.79
60087;BME280;45960;53.630;55.972;2022-08-11T06:29:31;100424.44;;;27.29;51.10
60087;BME280;45960;53.630;55.972;2022-08-11T06:31:34;100427.44;;;27.41;51.59
60087;BME280;45960;53.630;55.972;2022-08-11T06:32:35;100430.59;;;27.44;51.17
60087;BME280;45960;53.630;55.972;2022-08-11T06:33:37;100425.34;;;27.50;50.93
60087;BME280;45960;53.630;55.972;2022-08-11T06:36:06;100423.69;;;27.62;50.14
60087;BME280;45960;53.630;55.972;2022-08-11T06:37:26;100423.28;;;27.65;49.82
60087;BME280;45960;53.630;55.972;2022-08-11T06:42:12;100424.16;;;27.85;49.63
60087;BME280;45960;53.630;55.972;2022-08-11T06:43:22;100425.44;;;27.89;49.15
60087;BME280;45960;53.630;55.972;2022-08-11T06:44:29;100428.38;;;27.95;49.78
60087;BME280;45960;53.630;55.972;2022-08-11T06:46:51;100416.16;;;28.04;49.14
60087;BME280;45960;53.630;55.972;2022-08-11T06:47:54;100416.34;;;28.09;48.29
60087;BME280;45960;53.630;55.972;2022-08-11T06:49:02;100414.88;;;28.13;48.47
60087;BME280;45960;53.630;55.972;2022-08-11T06:50:04;100416.13;;;28.17;48.85
60087;BME280;45960;53.630;55.972;2022-08-11T06:51:24;100420.81;;;28.23;49.08
60087;BME280;45960;53.630;55.972;2022-08-11T06:52:28;100423.72;;;28.28;48.43
60087;BME280;45960;53.630;55.972;2022-08-11T06:53:31;100421.19;;;28.33;48.84
60087;BME280;45960;53.630;55.972;2022-08-11T06:54:38;100419.09;;;28.36;48.05
60087;BME280;45960;53.630;55.972;2022-08-11T06:55:41;100417.00;;;28.38;47.08
60087;BME280;45960;53.630;55.972;2022-08-11T06:57:02;100418.22;;;28.42;47.13
60087;BME280;45960;53.630;55.972;2022-08-11T06:58:23;100411.28;;;28.46;47.11
60087;BME280;45960;53.630;55.972;2022-08-11T06:59:44;100414.88;;;28.53;48.00
60087;BME280;45960;53.630;55.972;2022-08-11T07:01:07;100415.06;;;28.58;46.89
60087;BME280;45960;53.630;55.972;2022-08-11T07:03:15;100424.16;;;28.65;46.74
60087;BME280;45960;53.630;55.972;2022-08-11T07:04:23;100419.91;;;28.69;46.60
60087;BME280;45960;53.630;55.972;2022-08-11T07:06:38;100416.09;;;28.77;46.73
60087;BME280;45960;53.630;55.972;2022-08-11T07:09:23;100416.88;;;28.91;46.36
60087;BME280;45960;53.630;55.972;2022-08-11T07:12:42;100415.16;;;29.03;46.69
60087;BME280;45960;53.630;55.972;2022-08-11T07:13:53;100412.59;;;29.08;46.11
60087;BME280;45960;53.630;55.972;2022-08-11T07:15:17;100413.41;;;29.15;46.70
60087;BME280;45960;53.630;55.972;2022-08-11T07:16:38;100412.56;;;29.21;46.72
60087;BME280;45960;53.630;55.972;2022-08-11T07:17:45;100415.47;;;29.27;46.65
60087;BME280;45960;53.630;55.972;2022-08-11T07:18:49;100416.72;;;29.31;46.82
60087;BME280;45960;53.630;55.972;2022-08-11T07:20:09;100415.00;;;29.36;46.17
60087;BME280;45960;53.630;55.972;2022-08-11T07:21:31;100418.78;;;29.42;45.98
60087;BME280;45960;53.630;55.972;2022-08-11T07:22:53;100406.03;;;29.48;46.21
60087;BME280;45960;53.630;55.972;2022-08-11T07:24:18;100415.31;;;29.53;45.75
60087;BME280;45960;53.630;55.972;2022-08-11T07:25:41;100407.25;;;29.58;45.24
60087;BME280;45960;53.630;55.972;2022-08-11T07:27:00;100404.72;;;29.63;44.48
60087;BME280;45960;53.630;55.972;2022-08-11T07:28:25;100409.34;;;29.70;45.15
60087;BME280;45960;53.630;55.972;2022-08-11T07:29:45;100408.44;;;29.76;45.31
60087;BME280;45960;53.630;55.972;2022-08-11T07:30:48;100408.81;;;29.79;45.15
60087;BME280;45960;53.630;55.972;2022-08-11T07:31:51;100410.91;;;29.84;45.04
60087;BME280;45960;53.630;55.972;2022-08-11T07:32:54;100410.00;;;29.90;44.52
60087;BME280;45960;53.630;55.972;2022-08-11T07:34:11;100405.75;;;29.94;44.51
60087;BME280;45960;53.630;55.972;2022-08-11T07:35:15;100398.72;;;29.98;44.55
60087;BME280;45960;53.630;55.972;2022-08-11T07:36:19;100401.84;;;30.02;44.49
60087;BME280;45960;53.630;55.972;2022-08-11T07:37:23;100400.13;;;30.07;44.08
60087;BME280;45960;53.630;55.972;2022-08-11T07:38:26;100398.63;;;30.11;44.22
60087;BME280;45960;53.630;55.972;2022-08-11T07:39:43;100398.78;;;30.17;44.26
60087;BME280;45960;53.630;55.972;2022-08-11T07:40:44;100391.75;;;30.21;43.92
60087;BME280;45960;53.630;55.972;2022-08-11T07:41:45;100397.19;;;30.27;43.86
60087;BME280;45960;53.630;55.972;2022-08-11T07:42:49;100391.03;;;30.32;43.55
60087;BME280;45960;53.630;55.972;2022-08-11T07:43:51;100393.94;;;30.37;42.97
60087;BME280;45960;53.630;55.972;2022-08-11T07:44:54;100395.16;;;30.41;43.03
60087;BME280;45960;53.630;55.972;2022-08-11T07:46:15;100391.28;;;30.49;42.76
60087;BME280;45960;53.630;55.972;2022-08-11T07:47:35;100393.34;;;30.53;42.87
60087;BME280;45960;53.630;55.972;2022-08-11T07:48:55;100385.84;;;30.61;43.03
60087;BME280;45960;53.630;55.972;2022-08-11T07:50:15;100382.16;;;30.67;43.10
60087;BME280;45960;53.630;55.972;2022-08-11T07:51:34;100380.19;;;30.74;42.89
60087;BME280;45960;53.630;55.972;2022-08-11T07:52:55;100378.22;;;30.81;43.21
60087;BME280;45960;53.630;55.972;2022-08-11T07:53:57;100384.47;;;30.88;43.32
60087;BME280;45960;53.630;55.972;2022-08-11T07:56:00;100383.72;;;30.99;42.72
60087;BME280;45960;53.630;55.972;2022-08-11T07:57:02;100381.72;;;31.07;42.43
60087;BME280;45960;53.630;55.972;2022-08-11T07:58:22;100373.94;;;31.15;42.94
60087;BME280;45960;53.630;55.972;2022-08-11T07:59:43;100381.06;;;31.23;42.99
60087;BME280;45960;53.630;55.972;2022-08-11T08:01:17;100377.97;;;31.31;42.40
60087;BME280;45960;53.630;55.972;2022-08-11T08:02:38;100366.88;;;31.38;42.12
60087;BME280;45960;53.630;55.972;2022-08-11T08:03:58;100373.97;;;31.46;43.06
60087;BME280;45960;53.630;55.972;2022-08-11T08:05:17;100370.88;;;31.54;43.09
60087;BME280;45960;53.630;55.972;2022-08-11T08:06:37;100374.38;;;31.61;42.74
60087;BME280;45960;53.630;55.972;2022-08-11T08:07:58;100374.03;;;31.69;42.07
60087;BME280;45960;53.630;55.972;2022-08-11T08:09:44;100377.91;;;31.80;41.26
60087;BME280;45960;53.630;55.972;2022-08-11T08:11:04;100369.75;;;31.85;41.14
60087;BME280;45960;53.630;55.972;2022-08-11T08:12:24;100370.72;;;31.91;40.99
60087;BME280;45960;53.630;55.972;2022-08-11T08:13:44;100374.00;;;31.99;41.14
60087;BME280;45960;53.630;55.972;2022-08-11T08:15:07;100362.81;;;32.06;40.55
60087;BME280;45960;53.630;55.972;2022-08-11T08:16:28;100367.84;;;32.09;40.17
60087;BME280;45960;53.630;55.972;2022-08-11T08:17:48;100361.84;;;32.12;40.28
60087;BME280;45960;53.630;55.972;2022-08-11T08:18:51;100367.97;;;32.14;40.18
60087;BME280;45960;53.630;55.972;2022-08-11T08:19:52;100366.88;;;32.15;40.27
60087;BME280;45960;53.630;55.972;2022-08-11T08:20:54;100355.00;;;32.15;40.62
60087;BME280;45960;53.630;55.972;2022-08-11T08:22:11;100358.25;;;32.12;39.95
60087;BME280;45960;53.630;55.972;2022-08-11T08:23:25;100355.75;;;32.10;39.67
60087;BME280;45960;53.630;55.972;2022-08-11T08:24:33;100356.81;;;32.09;40.28
60087;BME280;45960;53.630;55.972;2022-08-11T08:25:35;100353.47;;;32.07;40.09
60087;BME280;45960;53.630;55.972;2022-08-11T08:26:36;100356.44;;;32.05;40.23
60087;BME280;45960;53.630;55.972;2022-08-11T08:27:57;100359.44;;;32.04;39.82
60087;BME280;45960;53.630;55.972;2022-08-11T08:29:00;100368.00;;;32.02;40.07
60087;BME280;45960;53.630;55.972;2022-08-11T08:30:19;100367.16;;;32.02;40.42
60087;BME280;45960;53.630;55.972;2022-08-11T08:31:39;100359.91;;;32.01;40.20
60087;BME280;45960;53.630;55.972;2022-08-11T08:32:40;100362.09;;;31.99;40.60
60087;BME280;45960;53.630;55.972;2022-08-11T08:33:41;100365.94;;;31.98;40.58
60087;BME280;45960;53.630;55.972;2022-08-11T08:34:42;100360.41;;;31.98;41.20
60087;BME280;45960;53.630;55.972;2022-08-11T08:35:44;100364.25;;;31.97;40.78
60087;BME280;45960;53.630;55.972;2022-08-11T08:36:47;100352.38;;;31.96;40.72
60087;BME280;45960;53.630;55.972;2022-08-11T08:37:49;100354.53;;;31.94;40.61
60087;BME280;45960;53.630;55.972;2022-08-11T08:38:51;100351.97;;;31.93;40.62
60087;BME280;45960;53.630;55.972;2022-08-11T08:39:53;100349.22;;;31.93;40.61
60087;BME280;45960;53.630;55.972;2022-08-11T08:40:54;100349.22;;;31.93;40.64
60087;BME280;45960;53.630;55.972;2022-08-11T08:41:56;100349.22;;;31.93;40.96
60087;BME280;45960;53.630;55.972;2022-08-11T08:42:58;100349.22;;;31.93;41.16
60087;BME280;45960;53.630;55.972;2022-08-11T08:44:04;100351.97;;;31.93;41.13
60087;BME280;45960;53.630;55.972;2022-08-11T08:45:08;100339.25;;;31.92;41.63
60087;BME280;45960;53.630;55.972;2022-08-11T08:46:10;100350.31;;;31.92;40.77
60087;BME280;45960;53.630;55.972;2022-08-11T08:47:15;100354.13;;;31.91;40.52
60087;BME280;45960;53.630;55.972;2022-08-11T08:48:18;100350.31;;;31.92;41.14
60087;BME280;45960;53.630;55.972;2022-08-11T08:49:25;100351.97;;;31.93;41.41
60087;BME280;45960;53.630;55.972;2022-08-11T08:50:33;100351.16;;;31.92;40.89
60087;BME280;45960;53.630;55.972;2022-08-11T08:51:53;100354.13;;;31.91;40.21
60087;BME280;45960;53.630;55.972;2022-08-11T08:52:59;100344.78;;;31.92;40.31
60087;BME280;45960;53.630;55.972;2022-08-11T08:54:18;100351.97;;;31.93;40.23
60087;BME280;45960;53.630;55.972;2022-08-11T08:55:19;100347.69;;;31.97;40.53
60087;BME280;45960;53.630;55.972;2022-08-11T08:56:25;100340.00;;;31.99;40.74
60087;BME280;45960;53.630;55.972;2022-08-11T08:57:30;100348.38;;;32.04;41.39
60087;BME280;45960;53.630;55.972;2022-08-11T08:58:33;100340.69;;;32.06;41.49
60087;BME280;45960;53.630;55.972;2022-08-11T08:59:38;100352.09;;;32.09;42.24
60087;BME280;45960;53.630;55.972;2022-08-11T09:00:41;100356.31;;;32.12;43.85
60087;BME280;45960;53.630;55.972;2022-08-11T09:01:50;100358.59;;;32.15;45.36
60087;BME280;45960;53.630;55.972;2022-08-11T09:02:53;100362.72;;;32.13;46.95
60087;BME280;45960;53.630;55.972;2022-08-11T09:03:55;100366.19;;;32.08;48.38
60087;BME280;45960;53.630;55.972;2022-08-11T09:04:56;100361.63;;;32.02;46.98
60087;BME280;45960;53.630;55.972;2022-08-11T09:05:58;100369.78;;;31.97;47.80
60087;BME280;45960;53.630;55.972;2022-08-11T09:07:02;100374.09;;;31.93;49.17
60087;BME280;45960;53.630;55.972;2022-08-11T09:08:07;100375.50;;;31.83;49.81
60087;BME280;45960;53.630;55.972;2022-08-11T09:09:08;100369.25;;;31.76;50.55